Time;durP1;ratioP1;P1;durP2;ratioP2;P2;SDS_P1;SDS_P2;PMS_P1;PMS_P2;Temp;Humidity;BMP_temperature;BMP_pressure;BME280_temperature;BME280_humidity;BME280_pressure;Samples;Min_cycle;Max_cycle;Signal;HPM_P1;HPM_P2
2023/12/02 00:01:43;;;;;;;39.07;19.00;;;-1.00;1.00;;;;;;5106527;27;20280;-51
2023/12/02 00:04:08;;;;;;;38.63;19.03;;;-1.00;1.00;;;;;;5106019;27;20196;-51
2023/12/02 00:06:34;;;;;;;35.20;18.83;;;-1.00;1.00;;;;;;5108761;27;20236;-51
2023/12/02 00:08:59;;;;;;;35.90;18.57;;;-1.00;1.00;;;;;;5106687;27;20201;-51
2023/12/02 00:11:25;;;;;;;37.50;20.03;;;-1.00;1.00;;;;;;5112476;27;20189;-51
2023/12/02 00:13:50;;;;;;;33.53;17.53;;;-1.10;1.00;;;;;;5109008;27;20271;-51
2023/12/02 00:16:16;;;;;;;34.80;18.37;;;-1.10;1.00;;;;;;5107397;27;20212;-51
2023/12/02 00:18:41;;;;;;;31.70;17.37;;;-1.10;1.00;;;;;;5099130;27;20220;-50
2023/12/02 00:21:07;;;;;;;34.10;17.40;;;-1.10;1.00;;;;;;5109894;27;20197;-51
2023/12/02 00:23:33;;;;;;;35.57;18.13;;;-1.10;1.00;;;;;;5110044;27;20196;-51
2023/12/02 00:25:58;;;;;;;33.67;18.10;;;-1.10;1.00;;;;;;5103555;27;20583;-51
2023/12/02 00:28:24;;;;;;;37.90;20.10;;;-1.10;1.00;;;;;;5113257;28;20187;-51
2023/12/02 00:30:50;;;;;;;37.70;18.10;;;-1.10;1.00;;;;;;5104385;28;20241;-51
2023/12/02 00:33:15;;;;;;;34.60;18.43;;;-1.10;1.00;;;;;;5106373;27;20178;-51
2023/12/02 00:35:41;;;;;;;34.70;17.80;;;-1.20;1.00;;;;;;5108283;28;20550;-51
2023/12/02 00:38:06;;;;;;;31.40;17.40;;;-1.20;1.00;;;;;;5109646;28;20676;-51
2023/12/02 00:40:32;;;;;;;34.13;17.53;;;-1.20;1.00;;;;;;5111572;28;20181;-51
2023/12/02 00:42:58;;;;;;;33.07;17.53;;;-1.20;1.00;;;;;;5093437;28;20184;-51
2023/12/02 00:45:23;;;;;;;34.03;18.20;;;-1.10;1.00;;;;;;5108046;28;20211;-51
2023/12/02 00:47:49;;;;;;;39.70;18.70;;;-1.10;1.00;;;;;;5109808;28;20569;-51
2023/12/02 00:50:14;;;;;;;34.37;18.60;;;-1.10;1.00;;;;;;5104883;28;20188;-51
2023/12/02 00:52:40;;;;;;;33.20;18.43;;;-1.10;1.00;;;;;;5104960;28;20668;-51
2023/12/02 00:55:06;;;;;;;32.77;17.90;;;-1.10;1.00;;;;;;5091452;28;20191;-51
2023/12/02 00:57:32;;;;;;;30.67;17.90;;;-1.10;1.00;;;;;;5108491;28;20203;-51
2023/12/02 00:59:57;;;;;;;29.53;17.00;;;-1.10;1.00;;;;;;5107704;28;20482;-51
2023/12/02 01:02:23;;;;;;;32.00;17.40;;;-1.10;1.00;;;;;;5113128;28;20264;-51
2023/12/02 01:04:48;;;;;;;32.67;17.93;;;-1.10;1.00;;;;;;5109565;28;20275;-51
2023/12/02 01:07:14;;;;;;;34.13;17.40;;;-1.10;1.00;;;;;;5104932;28;20237;-50
2023/12/02 01:09:40;;;;;;;35.37;18.83;;;-1.10;1.00;;;;;;5109097;28;20245;-51
2023/12/02 01:12:06;;;;;;;33.20;18.27;;;-1.10;1.00;;;;;;5103776;28;20184;-51
2023/12/02 01:14:31;;;;;;;36.17;18.70;;;-1.10;1.00;;;;;;5112722;28;20184;-51
2023/12/02 01:16:57;;;;;;;33.13;17.60;;;-1.10;1.00;;;;;;5116289;27;20838;-51
2023/12/02 01:19:22;;;;;;;36.93;18.33;;;-1.10;1.00;;;;;;5119348;27;20244;-51
2023/12/02 01:21:48;;;;;;;31.70;17.67;;;-1.10;1.00;;;;;;5105727;27;20192;-51
2023/12/02 01:24:14;;;;;;;32.37;17.77;;;-1.10;1.00;;;;;;5111728;27;20203;-51
2023/12/02 01:26:40;;;;;;;30.13;17.13;;;-1.10;1.00;;;;;;5113386;27;20191;-51
2023/12/02 01:29:06;;;;;;;41.23;19.90;;;-1.10;1.00;;;;;;5113774;27;20517;-51
2023/12/02 01:31:31;;;;;;;35.43;19.10;;;-1.10;1.00;;;;;;5115261;27;20195;-50
2023/12/02 01:33:57;;;;;;;37.10;19.37;;;-1.00;1.00;;;;;;5110214;27;20181;-51
2023/12/02 01:36:22;;;;;;;31.40;18.27;;;-1.00;1.00;;;;;;5109299;27;20173;-50
2023/12/02 01:38:48;;;;;;;34.23;17.50;;;-1.10;1.00;;;;;;5115007;27;20669;-51
2023/12/02 01:41:13;;;;;;;32.30;17.37;;;-1.10;1.00;;;;;;5109438;27;20202;-50
2023/12/02 01:43:39;;;;;;;34.63;18.20;;;-1.00;1.00;;;;;;5114664;27;20394;-50
2023/12/02 01:46:05;;;;;;;34.20;17.40;;;-1.10;1.00;;;;;;5112622;27;20191;-50
2023/12/02 01:48:34;;;;;;;32.27;17.27;;;-1.10;1.00;;;;;;5115318;27;20291;-51
2023/12/02 01:51:00;;;;;;;38.63;18.53;;;-1.10;1.00;;;;;;5111766;27;20445;-51
2023/12/02 01:53:26;;;;;;;32.13;16.83;;;-1.10;1.00;;;;;;5115737;27;20530;-50
2023/12/02 01:55:52;;;;;;;29.00;16.40;;;-1.10;1.00;;;;;;5113502;27;20627;-51
2023/12/02 01:58:19;;;;;;;29.13;16.80;;;-1.10;1.00;;;;;;5108516;27;20699;-51
2023/12/02 02:00:45;;;;;;;35.83;18.60;;;-1.10;1.00;;;;;;5110564;27;20449;-51
2023/12/02 02:03:10;;;;;;;34.47;18.30;;;-1.10;1.00;;;;;;5111819;27;20430;-51
2023/12/02 02:05:36;;;;;;;31.63;17.03;;;-1.10;1.00;;;;;;5112790;27;20585;-51
2023/12/02 02:08:02;;;;;;;29.43;16.83;;;-1.10;1.00;;;;;;5110508;27;20189;-51
2023/12/02 02:10:27;;;;;;;32.77;17.17;;;-1.10;1.00;;;;;;5111101;27;20186;-51
2023/12/02 02:12:53;;;;;;;36.77;16.20;;;-1.10;1.00;;;;;;5106697;27;20473;-51
2023/12/02 02:15:19;;;;;;;30.57;17.73;;;-1.10;1.00;;;;;;5111762;27;20188;-51
2023/12/02 02:17:44;;;;;;;30.67;16.67;;;-1.00;1.00;;;;;;5112727;27;20292;-51
2023/12/02 02:20:10;;;;;;;34.83;17.77;;;-1.10;1.00;;;;;;5109688;27;20222;-51
2023/12/02 02:22:36;;;;;;;34.27;17.63;;;-1.10;1.00;;;;;;5112347;27;20241;-51
2023/12/02 02:25:01;;;;;;;35.90;18.10;;;-1.10;1.00;;;;;;5111490;27;20946;-51
2023/12/02 02:27:27;;;;;;;37.70;17.77;;;-1.10;1.00;;;;;;5112106;27;20218;-51
2023/12/02 02:29:53;;;;;;;33.33;17.70;;;-1.10;1.00;;;;;;5113955;27;20217;-51
2023/12/02 02:32:18;;;;;;;30.93;16.60;;;-1.20;1.00;;;;;;5106860;27;20189;-51
2023/12/02 02:34:44;;;;;;;36.37;17.17;;;-1.10;1.00;;;;;;5105180;27;20215;-51
2023/12/02 02:37:09;;;;;;;35.87;17.57;;;-1.10;1.00;;;;;;5111811;27;20184;-51
2023/12/02 02:39:35;;;;;;;31.03;17.43;;;-1.10;1.00;;;;;;5109696;27;20224;-51
2023/12/02 02:42:05;;;;;;;33.00;16.87;;;-1.10;1.00;;;;;;5105044;27;20207;-51
2023/12/02 02:44:33;;;;;;;37.80;16.43;;;-1.10;1.00;;;;;;5111617;27;20199;-51
2023/12/02 02:46:58;;;;;;;32.17;17.67;;;-1.10;1.00;;;;;;5107044;27;20435;-51
2023/12/02 02:49:24;;;;;;;29.43;16.73;;;-1.10;1.00;;;;;;5113187;27;20436;-51
2023/12/02 02:51:49;;;;;;;33.23;17.43;;;-1.10;1.00;;;;;;5106928;27;20542;-51
2023/12/02 02:54:15;;;;;;;32.27;17.17;;;-1.10;1.00;;;;;;5111704;27;20197;-51
2023/12/02 02:56:40;;;;;;;31.70;16.80;;;-1.10;1.00;;;;;;5110172;27;20188;-51
2023/12/02 02:59:06;;;;;;;29.70;16.50;;;-1.10;1.00;;;;;;5113831;27;20213;-51
2023/12/02 03:01:32;;;;;;;35.27;17.27;;;-1.10;1.00;;;;;;5113169;27;20598;-51
2023/12/02 03:03:57;;;;;;;30.10;16.00;;;-1.10;1.00;;;;;;5107841;27;20601;-50
2023/12/02 03:06:24;;;;;;;28.53;16.77;;;-1.10;1.00;;;;;;5111285;27;20250;-51
2023/12/02 03:08:50;;;;;;;30.47;15.80;;;-1.10;1.00;;;;;;5109218;27;20275;-51
2023/12/02 03:11:15;;;;;;;30.53;16.37;;;-1.10;1.00;;;;;;5109014;27;20501;-51
2023/12/02 03:13:41;;;;;;;30.80;16.23;;;-1.10;1.00;;;;;;5108825;27;20212;-51
2023/12/02 03:16:08;;;;;;;38.60;18.17;;;-1.10;1.00;;;;;;5111083;27;20180;-51
2023/12/02 03:18:33;;;;;;;37.10;16.90;;;-1.10;1.00;;;;;;5110588;27;20223;-51
2023/12/02 03:20:59;;;;;;;28.90;16.37;;;-1.10;1.00;;;;;;5105871;27;20449;-50
2023/12/02 03:23:25;;;;;;;33.23;16.40;;;-1.10;1.00;;;;;;5110577;27;20188;-51
2023/12/02 03:25:51;;;;;;;32.50;16.90;;;-1.10;1.00;;;;;;5106638;28;20211;-51
2023/12/02 03:28:17;;;;;;;39.33;17.87;;;-1.10;1.00;;;;;;5107728;27;20445;-51
2023/12/02 03:30:43;;;;;;;33.87;16.13;;;-1.00;12.40;;;;;;5108060;27;20185;-51
2023/12/02 03:33:08;;;;;;;27.43;15.33;;;-1.00;3.90;;;;;;5106687;27;20587;-51
2023/12/02 03:35:34;;;;;;;31.37;16.33;;;-0.90;2.50;;;;;;5106826;27;20200;-51
2023/12/02 03:37:59;;;;;;;32.13;16.67;;;-1.00;1.00;;;;;;5103144;27;20184;-51
2023/12/02 03:40:25;;;;;;;27.43;15.23;;;-1.00;1.00;;;;;;5100569;27;20643;-51
2023/12/02 03:42:51;;;;;;;31.20;16.93;;;-1.00;1.00;;;;;;5107091;27;20243;-51
2023/12/02 03:45:16;;;;;;;29.10;16.13;;;-1.00;3.00;;;;;;5105257;27;20281;-51
2023/12/02 03:47:42;;;;;;;28.80;16.27;;;-1.00;1.00;;;;;;5106757;27;20201;-51
2023/12/02 03:50:09;;;;;;;31.93;17.20;;;-1.00;1.00;;;;;;5091092;28;20199;-51
2023/12/02 03:52:34;;;;;;;29.97;15.40;;;-1.00;1.00;;;;;;5091388;27;20188;-51
2023/12/02 03:55:01;;;;;;;26.93;14.60;;;-1.00;1.00;;;;;;5110028;27;20452;-51
2023/12/02 03:57:27;;;;;;;32.80;16.67;;;-1.00;15.00;;;;;;5108546;27;20203;-51
2023/12/02 03:59:52;;;;;;;29.50;16.23;;;-0.90;18.20;;;;;;5110173;27;20480;-51
2023/12/02 04:02:18;;;;;;;30.37;15.90;;;-1.00;1.30;;;;;;5107875;27;20193;-51
2023/12/02 04:04:44;;;;;;;35.20;17.40;;;-1.00;2.00;;;;;;5105414;27;20191;-51
2023/12/02 04:07:09;;;;;;;28.80;15.93;;;-1.00;1.00;;;;;;5109317;27;20179;-51
2023/12/02 04:09:35;;;;;;;33.37;17.10;;;-1.00;1.00;;;;;;5105638;27;20645;-51
2023/12/02 04:12:00;;;;;;;33.83;16.00;;;-1.00;9.80;;;;;;5111956;27;20188;-51
2023/12/02 04:14:26;;;;;;;32.90;17.30;;;-0.90;17.70;;;;;;5108605;27;20234;-51
2023/12/02 04:16:52;;;;;;;29.73;16.10;;;-0.90;1.00;;;;;;5112441;27;20195;-50
2023/12/02 04:19:17;;;;;;;31.77;16.43;;;-1.00;1.00;;;;;;5107695;27;20333;-51
2023/12/02 04:21:44;;;;;;;29.67;16.80;;;-1.00;1.00;;;;;;5109373;27;20200;-51
2023/12/02 04:24:10;;;;;;;28.60;15.53;;;-1.00;1.00;;;;;;5106757;27;20583;-51
2023/12/02 04:26:36;;;;;;;37.10;16.20;;;-1.00;1.00;;;;;;5109202;27;20438;-51
2023/12/02 04:29:02;;;;;;;27.47;15.87;;;-1.00;1.00;;;;;;5104882;27;20653;-51
2023/12/02 04:31:27;;;;;;;29.67;16.20;;;-1.00;1.00;;;;;;5104645;28;20453;-51
2023/12/02 04:33:53;;;;;;;36.20;17.67;;;-1.00;1.00;;;;;;5105723;27;20208;-51
2023/12/02 04:36:19;;;;;;;29.73;15.93;;;-1.10;1.00;;;;;;5105617;27;20184;-51
2023/12/02 04:38:45;;;;;;;30.63;15.90;;;-1.10;1.00;;;;;;5108222;28;20629;-51
2023/12/02 04:41:10;;;;;;;27.30;14.53;;;-1.10;1.00;;;;;;5105234;28;20464;-51
2023/12/02 04:43:36;;;;;;;30.10;15.90;;;-1.00;1.00;;;;;;5110136;28;20286;-50
2023/12/02 04:46:02;;;;;;;31.33;16.87;;;-1.00;6.00;;;;;;5107978;28;20230;-51
2023/12/02 04:48:27;;;;;;;29.50;15.60;;;-0.90;16.40;;;;;;5105192;28;20200;-51
2023/12/02 04:50:53;;;;;;;33.10;16.10;;;-0.90;1.00;;;;;;5110450;27;20191;-50
2023/12/02 04:53:19;;;;;;;29.40;14.23;;;-1.00;1.00;;;;;;5107796;27;20181;-51
2023/12/02 04:55:46;;;;;;;34.07;17.07;;;-1.00;1.00;;;;;;5109810;27;20178;-51
2023/12/02 04:58:11;;;;;;;34.00;17.30;;;-1.00;1.00;;;;;;5115583;27;20966;-51
2023/12/02 05:00:37;;;;;;;33.13;16.80;;;-1.00;1.00;;;;;;5106364;27;20451;-51
2023/12/02 05:03:03;;;;;;;33.40;17.73;;;-1.00;1.00;;;;;;5108465;27;20189;-51
2023/12/02 05:05:29;;;;;;;34.20;17.13;;;-1.00;3.50;;;;;;5110453;27;20487;-51
2023/12/02 05:07:54;;;;;;;31.27;16.03;;;-1.00;1.00;;;;;;5114654;27;20188;-51
2023/12/02 05:10:20;;;;;;;31.57;17.00;;;-1.10;1.00;;;;;;5111948;27;20196;-51
2023/12/02 05:12:45;;;;;;;35.00;17.43;;;-1.10;1.00;;;;;;5113521;27;20665;-51
2023/12/02 05:15:11;;;;;;;35.10;17.77;;;-1.10;1.00;;;;;;5112148;27;20191;-51
2023/12/02 05:17:37;;;;;;;33.57;16.90;;;-1.10;10.00;;;;;;5095217;27;20217;-51
2023/12/02 05:20:03;;;;;;;33.83;17.57;;;-1.00;27.10;;;;;;5107326;27;20212;-52
2023/12/02 05:22:28;;;;;;;34.17;17.53;;;-1.00;35.00;;;;;;5107042;27;20192;-52
2023/12/02 05:24:54;;;;;;;33.13;16.77;;;-1.00;28.50;;;;;;5110786;27;20284;-51
2023/12/02 05:27:19;;;;;;;33.00;16.90;;;-1.00;20.60;;;;;;5104927;27;20213;-53
2023/12/02 05:29:45;;;;;;;32.07;16.80;;;-1.00;29.10;;;;;;5115172;27;20278;-51
2023/12/02 05:32:11;;;;;;;34.20;17.37;;;-1.00;29.00;;;;;;5111369;27;20679;-51
2023/12/02 05:34:36;;;;;;;35.50;16.37;;;-1.00;19.50;;;;;;5120064;27;20190;-51
2023/12/02 05:37:02;;;;;;;33.73;17.27;;;-1.00;18.50;;;;;;5108768;27;20184;-51
2023/12/02 05:39:28;;;;;;;32.50;17.07;;;-1.00;16.90;;;;;;5119073;27;20306;-51
2023/12/02 05:41:54;;;;;;;35.80;17.37;;;-1.00;28.20;;;;;;5108040;27;20919;-51
2023/12/02 05:44:19;;;;;;;30.50;16.70;;;-1.00;40.60;;;;;;5113773;27;20202;-51
2023/12/02 05:46:45;;;;;;;33.80;17.53;;;-1.00;44.40;;;;;;5114877;27;20437;-51
2023/12/02 05:49:11;;;;;;;38.17;17.73;;;-1.00;32.70;;;;;;5110696;27;20213;-51
2023/12/02 05:51:38;;;;;;;36.93;18.60;;;-1.00;40.80;;;;;;5111942;27;20199;-50
2023/12/02 05:54:06;;;;;;;34.27;17.90;;;-1.00;35.20;;;;;;5113650;27;20429;-51
2023/12/02 05:56:32;;;;;;;34.83;17.03;;;-0.90;47.70;;;;;;5113378;27;20433;-51
2023/12/02 05:58:57;;;;;;;38.10;18.20;;;-0.90;55.10;;;;;;5112825;27;20469;-51
2023/12/02 06:01:23;;;;;;;32.47;17.07;;;-0.90;42.90;;;;;;5107986;27;20185;-51
2023/12/02 06:03:49;;;;;;;38.67;18.67;;;-0.90;36.80;;;;;;5108976;27;20662;-51
2023/12/02 06:06:15;;;;;;;32.13;16.53;;;-0.90;39.50;;;;;;5113513;27;20226;-51
2023/12/02 06:08:40;;;;;;;40.23;18.53;;;-0.90;43.20;;;;;;5104566;27;20827;-51
2023/12/02 06:11:06;;;;;;;37.77;18.80;;;-0.90;52.80;;;;;;5114909;27;20185;-51
2023/12/02 06:13:31;;;;;;;35.87;18.73;;;-0.90;51.80;;;;;;5118487;27;20213;-51
2023/12/02 06:15:57;;;;;;;37.20;18.17;;;-0.90;29.10;;;;;;5109916;27;20180;-51
2023/12/02 06:18:23;;;;;;;35.50;17.30;;;-0.90;20.50;;;;;;5109044;27;20574;-50
2023/12/02 06:20:48;;;;;;;38.50;17.10;;;-0.90;24.10;;;;;;5106253;27;20196;-51
2023/12/02 06:23:14;;;;;;;38.20;17.87;;;-0.90;28.00;;;;;;5111282;27;20181;-51
2023/12/02 06:25:39;;;;;;;37.00;18.07;;;-0.90;33.70;;;;;;5112487;27;20199;-51
2023/12/02 06:28:05;;;;;;;35.63;18.77;;;-0.90;31.70;;;;;;5112995;27;20189;-51
2023/12/02 06:30:31;;;;;;;39.97;19.77;;;-0.90;33.50;;;;;;5105223;27;20269;-51
2023/12/02 06:32:56;;;;;;;41.73;18.43;;;-0.90;24.70;;;;;;5103572;27;20185;-51
2023/12/02 06:35:22;;;;;;;33.80;17.70;;;-0.90;18.60;;;;;;5107126;27;20445;-51
2023/12/02 06:37:48;;;;;;;36.53;17.80;;;-1.00;12.80;;;;;;5111028;27;20642;-51
2023/12/02 06:40:13;;;;;;;42.53;18.27;;;-1.00;22.50;;;;;;5119972;27;20223;-51
2023/12/02 06:42:39;;;;;;;38.53;18.77;;;-1.00;18.90;;;;;;5109995;27;20184;-51
2023/12/02 06:45:05;;;;;;;38.13;18.77;;;-1.00;20.40;;;;;;5109199;27;20537;-50
2023/12/02 06:47:31;;;;;;;37.73;19.50;;;-1.00;30.30;;;;;;5108966;27;20193;-51
2023/12/02 06:49:56;;;;;;;38.57;18.50;;;-0.90;46.80;;;;;;5114642;27;20529;-51
2023/12/02 06:52:22;;;;;;;39.10;19.03;;;-0.90;36.20;;;;;;5102933;27;20672;-51
2023/12/02 06:54:48;;;;;;;38.70;20.20;;;-0.90;25.10;;;;;;5109245;27;20189;-51
2023/12/02 06:57:13;;;;;;;38.00;18.43;;;-0.90;25.20;;;;;;5110125;27;20184;-50
2023/12/02 06:59:39;;;;;;;41.67;18.67;;;-0.90;34.30;;;;;;5113251;27;20219;-51
2023/12/02 07:02:04;;;;;;;37.30;18.67;;;-0.90;11.30;;;;;;5110617;27;20233;-51
2023/12/02 07:04:30;;;;;;;36.20;17.90;;;-0.90;1.00;;;;;;5110492;27;20188;-51
2023/12/02 07:06:55;;;;;;;40.37;18.43;;;-0.90;1.00;;;;;;5111810;27;20228;-51
2023/12/02 07:09:21;;;;;;;38.93;18.93;;;-0.90;1.00;;;;;;5112037;27;20180;-51
2023/12/02 07:11:47;;;;;;;40.50;19.90;;;-1.00;1.00;;;;;;5112494;27;20185;-50
2023/12/02 07:14:12;;;;;;;36.73;19.47;;;-1.00;1.00;;;;;;5107319;27;20182;-51
2023/12/02 07:16:38;;;;;;;41.03;19.70;;;-1.00;1.00;;;;;;5099836;27;20226;-50
2023/12/02 07:19:04;;;;;;;40.93;19.83;;;-1.00;1.00;;;;;;5108621;27;20881;-51
2023/12/02 07:21:29;;;;;;;34.60;18.37;;;-1.00;9.80;;;;;;5107216;27;20184;-51
2023/12/02 07:23:55;;;;;;;37.00;19.10;;;-0.90;17.60;;;;;;5111730;27;20481;-51
2023/12/02 07:26:20;;;;;;;37.03;18.83;;;-0.90;25.50;;;;;;5110950;27;20189;-50
2023/12/02 07:28:46;;;;;;;37.50;18.23;;;-0.90;25.10;;;;;;5100266;27;20330;-50
2023/12/02 07:31:16;;;;;;;37.53;19.97;;;-0.90;17.50;;;;;;5105446;27;20181;-51
2023/12/02 07:33:41;;;;;;;38.03;19.43;;;-0.80;20.40;;;;;;5108663;27;20712;-50
2023/12/02 07:36:08;;;;;;;40.57;19.57;;;-0.80;28.10;;;;;;5110771;27;20514;-50
2023/12/02 07:38:33;;;;;;;37.20;19.17;;;-0.70;42.70;;;;;;5113424;27;20231;-50
2023/12/02 07:40:59;;;;;;;35.40;17.83;;;-0.70;39.60;;;;;;5110220;27;20437;-50
2023/12/02 07:43:24;;;;;;;39.93;18.80;;;-0.70;15.40;;;;;;5110072;27;20241;-50
2023/12/02 07:45:50;;;;;;;33.03;17.80;;;-0.70;5.50;;;;;;5109737;27;20190;-50
2023/12/02 07:48:16;;;;;;;39.13;19.30;;;-0.70;10.10;;;;;;5111908;27;20182;-50
2023/12/02 07:50:42;;;;;;;36.27;18.10;;;-0.70;3.10;;;;;;5110977;27;20192;-50
2023/12/02 07:53:08;;;;;;;31.97;17.53;;;-0.70;1.00;;;;;;5110005;27;20486;-51
2023/12/02 07:55:33;;;;;;;36.23;18.13;;;-0.70;9.90;;;;;;5086911;28;20216;-51
2023/12/02 07:57:59;;;;;;;31.60;18.47;;;-0.60;26.70;;;;;;5109412;27;20194;-51
2023/12/02 08:00:24;;;;;;;35.00;18.70;;;-0.60;29.00;;;;;;5113629;27;20195;-51
2023/12/02 08:02:50;;;;;;;37.90;19.30;;;-0.50;25.20;;;;;;5105915;27;20191;-51
2023/12/02 08:05:16;;;;;;;35.63;18.43;;;-0.50;17.50;;;;;;5100846;27;20233;-51
2023/12/02 08:07:41;;;;;;;39.60;19.90;;;-0.50;11.80;;;;;;5111375;27;20177;-51
2023/12/02 08:10:09;;;;;;;37.17;19.23;;;-0.50;1.00;;;;;;5104600;27;20234;-51
2023/12/02 08:12:36;;;;;;;40.07;20.33;;;-0.50;1.00;;;;;;5109880;27;20301;-51
2023/12/02 08:15:02;;;;;;;35.97;18.97;;;-0.60;1.00;;;;;;5114572;27;20466;-51
2023/12/02 08:17:28;;;;;;;46.97;21.03;;;-0.60;1.00;;;;;;5112078;27;20534;-51
2023/12/02 08:19:53;;;;;;;39.10;19.20;;;-0.60;1.00;;;;;;5109172;27;20219;-51
2023/12/02 08:22:24;;;;;;;40.20;19.77;;;-0.50;1.00;;;;;;5108379;27;20452;-51
2023/12/02 08:24:50;;;;;;;39.30;19.83;;;-0.50;1.00;;;;;;5097543;28;20206;-50
2023/12/02 08:27:17;;;;;;;36.27;18.73;;;-0.40;1.00;;;;;;5100946;28;20432;-51
2023/12/02 08:29:42;;;;;;;42.37;20.20;;;-0.40;1.00;;;;;;5105633;27;20436;-49
2023/12/02 08:32:08;;;;;;;39.50;20.70;;;-0.40;1.00;;;;;;5102112;27;21251;-50
2023/12/02 08:34:34;;;;;;;43.63;20.43;;;-0.40;1.00;;;;;;5105450;27;20647;-49
2023/12/02 08:36:59;;;;;;;39.07;19.77;;;-0.30;1.00;;;;;;5103216;28;20235;-50
2023/12/02 08:39:25;;;;;;;40.73;19.70;;;-0.30;1.00;;;;;;5100538;27;20243;-50
2023/12/02 08:41:50;;;;;;;44.90;20.63;;;-0.30;1.00;;;;;;5107311;28;20178;-50
2023/12/02 08:44:16;;;;;;;40.13;19.80;;;-0.20;1.00;;;;;;5099407;28;20204;-49
2023/12/02 08:46:41;;;;;;;41.13;19.50;;;-0.20;1.00;;;;;;5106080;28;20190;-49
2023/12/02 08:49:07;;;;;;;42.17;20.50;;;-0.20;1.00;;;;;;5105276;28;20641;-49
2023/12/02 08:51:32;;;;;;;35.70;18.70;;;-0.30;1.00;;;;;;5118514;28;20191;-50
2023/12/02 08:54:02;;;;;;;39.27;19.70;;;-0.20;1.00;;;;;;5107156;28;20179;-50
2023/12/02 08:56:28;;;;;;;39.77;19.87;;;-0.20;1.00;;;;;;5099661;28;20188;-50
2023/12/02 08:58:54;;;;;;;38.67;19.73;;;-0.20;1.00;;;;;;5101959;28;20467;-49
2023/12/02 09:01:20;;;;;;;39.70;19.93;;;-0.20;1.00;;;;;;5104636;28;20436;-49
2023/12/02 09:03:46;;;;;;;40.03;20.27;;;-0.10;1.00;;;;;;5084865;28;21479;-50
2023/12/02 09:06:11;;;;;;;39.30;19.27;;;-0.10;1.00;;;;;;5097034;28;20470;-50
2023/12/02 09:08:37;;;;;;;45.60;20.10;;;0.00;1.00;;;;;;5109044;28;20232;-49
2023/12/02 09:11:04;;;;;;;41.73;19.63;;;0.00;1.00;;;;;;5103745;28;20536;-49
2023/12/02 09:13:49;;;;;;;37.97;19.23;;;0.00;1.00;;;;;;5105703;28;20529;-50
2023/12/02 09:16:21;;;;;;;37.10;18.57;;;0.10;1.00;;;;;;5108541;28;20536;-50
2023/12/02 09:18:47;;;;;;;37.73;18.03;;;0.10;1.00;;;;;;5108359;28;20485;-50
2023/12/02 09:21:21;;;;;;;34.73;18.53;;;0.10;99.90;;;;;;5106542;28;20437;-50
2023/12/02 09:23:51;;;;;;;38.03;19.40;;;0.10;99.90;;;;;;5107558;28;20446;-50
2023/12/02 09:26:29;;;;;;;36.73;20.07;;;0.10;99.90;;;;;;5102952;28;20434;-50
2023/12/02 09:28:55;;;;;;;36.33;18.67;;;0.20;99.90;;;;;;5102171;28;20435;-50
2023/12/02 09:31:21;;;;;;;31.60;19.67;;;0.20;99.90;;;;;;5102077;28;20445;-50
2023/12/02 09:33:58;;;;;;;34.60;19.07;;;0.30;1.00;;;;;;5099109;28;20426;-50
2023/12/02 09:36:36;;;;;;;37.90;19.60;;;0.30;99.90;;;;;;5098447;28;20446;-49
2023/12/02 09:39:17;;;;;;;37.80;18.80;;;0.40;99.90;;;;;;5109001;27;21085;-49
2023/12/02 09:41:49;;;;;;;37.10;19.40;;;0.40;99.90;;;;;;5114935;27;20438;-49
2023/12/02 09:44:28;;;;;;;39.90;18.50;;;0.40;99.90;;;;;;5111893;27;20446;-49
2023/12/02 09:47:10;;;;;;;33.37;17.50;;;0.40;99.90;;;;;;5108704;27;20444;-49
2023/12/02 09:49:36;;;;;;;34.93;19.30;;;0.40;99.90;;;;;;5111376;27;20952;-49
2023/12/02 09:52:24;;;;;;;34.43;19.03;;;0.40;99.90;;;;;;5110683;27;20533;-49
2023/12/02 09:55:02;;;;;;;31.00;17.60;;;0.40;99.90;;;;;;5111421;27;20185;-49
2023/12/02 09:58:00;;;;;;;34.50;18.70;;;0.50;99.90;;;;;;5110531;27;20488;-49
2023/12/02 10:00:40;;;;;;;34.37;17.83;;;0.50;99.90;;;;;;5107192;27;20487;-49
2023/12/02 10:03:43;;;;;;;39.00;20.47;;;0.60;99.90;;;;;;5110632;27;20427;-49
2023/12/02 10:06:24;;;;;;;33.67;18.70;;;0.70;32.70;;;;;;5105836;27;20477;-50
2023/12/02 10:09:19;;;;;;;36.90;19.97;;;0.80;6.10;;;;;;5110672;27;20449;-49
2023/12/02 10:11:53;;;;;;;33.47;18.00;;;0.80;99.90;;;;;;5109680;27;20457;-49
2023/12/02 10:14:22;;;;;;;31.07;16.97;;;0.90;99.90;;;;;;5112771;27;20471;-50
2023/12/02 10:16:50;;;;;;;29.80;17.13;;;0.90;1.00;;;;;;5112941;27;20441;-49
2023/12/02 10:19:36;;;;;;;32.40;18.37;;;0.90;1.00;;;;;;5111119;27;20480;-50
2023/12/02 10:22:03;;;;;;;28.60;17.00;;;0.80;1.00;;;;;;5109053;27;20445;-50
2023/12/02 10:24:59;;;;;;;33.20;17.20;;;0.80;1.00;;;;;;5111125;27;20696;-49
2023/12/02 10:27:28;;;;;;;31.03;17.10;;;0.90;3.40;;;;;;5112937;27;20480;-50
2023/12/02 10:30:03;;;;;;;29.53;16.47;;;1.10;1.00;;;;;;5114765;27;20742;-50
2023/12/02 10:32:50;;;;;;;26.93;15.97;;;1.20;1.00;;;;;;5110669;27;20451;-50
2023/12/02 10:35:31;;;;;;;33.03;17.43;;;1.30;99.90;;;;;;5107198;27;20446;-50
2023/12/02 10:38:10;;;;;;;31.87;17.07;;;1.30;99.90;;;;;;5111960;27;20509;-51
2023/12/02 10:40:36;;;;;;;29.67;16.37;;;1.30;99.90;;;;;;5113613;27;20446;-50
2023/12/02 10:43:09;;;;;;;26.50;15.57;;;1.40;99.90;;;;;;5111256;27;20450;-51
2023/12/02 10:45:39;;;;;;;31.20;17.30;;;1.50;99.90;;;;;;5084754;28;20184;-50
2023/12/02 10:48:07;;;;;;;27.97;16.50;;;1.50;1.00;;;;;;5105952;27;20471;-50
2023/12/02 10:50:34;;;;;;;33.80;17.20;;;1.40;99.90;;;;;;5119270;27;20847;-50
2023/12/02 10:53:04;;;;;;;27.60;16.33;;;1.40;1.00;;;;;;5117595;27;20463;-50
2023/12/02 10:55:32;;;;;;;30.90;17.40;;;1.30;1.00;;;;;;5110896;27;20473;-50
2023/12/02 10:57:59;;;;;;;30.60;16.27;;;1.30;99.90;;;;;;5107686;27;20927;-50
2023/12/02 11:00:29;;;;;;;26.73;15.33;;;1.30;99.90;;;;;;5096772;27;20525;-50
2023/12/02 11:03:11;;;;;;;27.03;16.10;;;1.50;99.90;;;;;;5110027;27;20940;-50
2023/12/02 11:06:04;;;;;;;24.70;15.43;;;1.60;1.00;;;;;;5108640;27;20832;-50
2023/12/02 11:08:44;;;;;;;28.00;15.93;;;1.80;99.90;;;;;;5107370;27;20476;-50
2023/12/02 11:11:14;;;;;;;27.63;15.70;;;1.90;1.00;;;;;;5093972;28;20431;-50
2023/12/02 11:13:42;;;;;;;27.80;15.70;;;2.00;99.90;;;;;;5110930;27;20431;-50
2023/12/02 11:16:37;;;;;;;28.37;15.93;;;2.00;76.00;;;;;;5113146;27;20921;-50
2023/12/02 11:19:30;;;;;;;24.37;14.93;;;2.00;1.00;;;;;;5107825;28;20481;-50
2023/12/02 11:22:08;;;;;;;25.23;14.60;;;2.00;1.00;;;;;;5111252;27;20433;-50
2023/12/02 11:24:46;;;;;;;24.30;14.00;;;2.00;1.00;;;;;;5105554;27;20437;-50
2023/12/02 11:27:24;;;;;;;22.47;13.07;;;2.10;1.00;;;;;;5110581;27;20437;-50
2023/12/02 11:30:05;;;;;;;22.43;13.67;;;2.10;99.90;;;;;;5109526;27;20454;-50
2023/12/02 11:32:31;;;;;;;25.87;13.17;;;2.30;99.90;;;;;;5109252;27;20457;-50
2023/12/02 11:35:17;;;;;;;23.13;13.43;;;2.40;49.50;;;;;;5114519;27;20532;-50
2023/12/02 11:37:48;;;;;;;18.60;11.97;;;2.60;1.00;;;;;;5114634;27;20213;-49
2023/12/02 11:40:21;;;;;;;18.70;11.33;;;2.80;1.00;;;;;;5108313;27;20475;-50
2023/12/02 11:42:56;;;;;;;20.03;11.20;;;2.90;99.90;;;;;;5109546;27;20578;-50
2023/12/02 11:45:38;;;;;;;19.17;10.73;;;2.90;1.00;;;;;;5111087;27;20438;-50
2023/12/02 11:48:24;;;;;;;15.80;10.03;;;2.80;1.00;;;;;;5110237;27;20463;-50
2023/12/02 11:51:18;;;;;;;14.90;10.40;;;2.90;99.90;;;;;;5116299;27;20451;-50
2023/12/02 11:54:06;;;;;;;18.57;11.17;;;3.00;99.90;;;;;;5110070;27;20508;-50
2023/12/02 11:56:32;;;;;;;12.50;8.80;;;3.00;99.90;;;;;;5110150;27;20466;-50
2023/12/02 11:59:11;;;;;;;12.90;8.43;;;3.00;99.90;;;;;;5111848;27;20484;-50
2023/12/02 12:01:40;;;;;;;12.90;7.60;;;2.90;99.90;;;;;;5112704;27;20912;-50
2023/12/02 12:04:21;;;;;;;11.90;8.33;;;2.80;99.90;;;;;;5105821;27;20431;-50
2023/12/02 12:06:49;;;;;;;12.90;7.53;;;2.60;99.90;;;;;;5107915;27;20880;-50
2023/12/02 12:09:35;;;;;;;11.90;8.20;;;2.50;99.90;;;;;;5113281;27;20517;-49
2023/12/02 12:12:03;;;;;;;9.50;7.23;;;2.40;99.90;;;;;;5113207;27;20430;-50
2023/12/02 12:14:29;;;;;;;11.30;7.60;;;2.30;99.90;;;;;;5111431;27;20432;-50
2023/12/02 12:16:55;;;;;;;11.17;7.20;;;2.20;94.10;;;;;;5105887;27;20438;-50
2023/12/02 12:19:20;;;;;;;9.70;6.80;;;2.20;97.00;;;;;;5112833;27;20474;-50
2023/12/02 12:21:47;;;;;;;13.63;7.63;;;2.20;99.90;;;;;;5108881;28;20597;-50
2023/12/02 12:24:14;;;;;;;12.77;7.63;;;2.20;99.90;;;;;;5110116;27;20184;-50
2023/12/02 12:26:39;;;;;;;13.10;8.20;;;2.30;99.90;;;;;;5108057;28;20431;-50
2023/12/02 12:29:05;;;;;;;11.83;8.17;;;2.30;99.90;;;;;;5110243;27;20510;-50
2023/12/02 12:31:30;;;;;;;12.43;7.80;;;2.50;99.90;;;;;;5108456;27;20803;-50
2023/12/02 12:33:58;;;;;;;11.00;7.90;;;2.80;90.20;;;;;;5110011;27;20220;-50
2023/12/02 12:36:28;;;;;;;12.63;7.53;;;3.10;82.50;;;;;;5103983;28;20213;-50
2023/12/02 12:38:57;;;;;;;10.40;7.30;;;3.70;73.70;;;;;;5108231;27;20476;-50
2023/12/02 12:41:24;;;;;;;11.57;7.27;;;4.20;15.50;;;;;;5109311;27;20912;-50